Time;durP1;ratioP1;P1;durP2;ratioP2;P2;SDS_P1;SDS_P2;PMS_P1;PMS_P2;Temp;Humidity;BMP_temperature;BMP_pressure;BME280_temperature;BME280_humidity;BME280_pressure;Samples;Min_cycle;Max_cycle;Signal;HPM_P1;HPM_P2
2022/04/02 00:00:56;;;;;;;8.30;7.30;;;;;;;-0.09;81.36;99217.44;84596;1330;22674;-77
2022/04/02 00:03:06;;;;;;;9.70;7.10;;;;;;;-0.07;81.32;99212.27;84629;1329;23902;-77
2022/04/02 00:05:15;;;;;;;8.40;7.10;;;;;;;-0.08;81.48;99212.98;84686;1332;22659;-77
2022/04/02 00:07:27;;;;;;;13.00;8.30;;;;;;;-0.13;81.22;99214.41;84671;1330;22696;-75
2022/04/02 00:09:36;;;;;;;13.30;8.30;;;;;;;-0.16;81.08;99213.24;84662;1329;22650;-75
2022/04/02 00:11:47;;;;;;;9.10;7.10;;;;;;;-0.17;81.04;99211.21;84670;1330;22596;-77
2022/04/02 00:13:56;;;;;;;22.60;7.60;;;;;;;-0.17;81.30;99213.27;84621;1332;24255;-77
2022/04/02 00:16:06;;;;;;;7.40;6.70;;;;;;;-0.19;81.09;99210.55;84594;1329;22770;-77
2022/04/02 00:18:18;;;;;;;8.70;7.00;;;;;;;-0.19;81.13;99209.88;84570;1332;22741;-77
2022/04/02 00:20:30;;;;;;;11.20;7.70;;;;;;;-0.18;81.16;99210.89;84562;1327;22613;-78
2022/04/02 00:23:35;;;;;;;7.40;6.70;;;;;;;-0.19;81.13;99207.98;84577;1330;22814;-77
2022/04/02 00:25:11;;;;;;;10.30;7.00;;;;;;;-0.19;81.15;99207.82;84572;1330;23960;-77
2022/04/02 00:27:20;;;;;;;9.20;7.20;;;;;;;-0.22;81.28;99204.93;84593;1332;25459;-77
2022/04/02 00:29:38;;;;;;;8.10;6.60;;;;;;;-0.24;81.26;99200.33;84569;1329;25973;-76
2022/04/02 00:31:47;;;;;;;11.90;7.70;;;;;;;-0.25;81.17;99201.88;84567;1331;22676;-75
2022/04/02 00:33:56;;;;;;;8.20;7.30;;;;;;;-0.25;81.24;99205.14;84579;1330;22670;-75
2022/04/02 00:36:05;;;;;;;10.90;6.40;;;;;;;-0.27;81.18;99199.34;84611;1332;25446;-74
2022/04/02 00:38:16;;;;;;;9.60;7.40;;;;;;;-0.29;81.35;99200.23;84601;1330;24123;-74
2022/04/02 00:40:28;;;;;;;7.10;6.00;;;;;;;-0.29;81.18;99198.84;84593;1329;23193;-76
2022/04/02 00:42:37;;;;;;;8.20;7.00;;;;;;;-0.30;81.24;99200.40;84566;1331;22624;-78
2022/04/02 00:44:49;;;;;;;6.90;6.00;;;;;;;-0.30;80.94;99196.46;84577;1329;22805;-78
2022/04/02 00:47:01;;;;;;;8.60;6.00;;;;;;;-0.30;81.24;99204.52;84581;1329;22660;-76
2022/04/02 00:49:11;;;;;;;7.60;5.70;;;;;;;-0.30;81.59;99207.44;84583;1331;22583;-75
2022/04/02 00:51:18;;;;;;;;;;;;;;;-0.31;81.06;99209.33;84338;1329;329813;-75
2022/04/02 00:53:33;;;;;;;7.30;6.30;;;;;;;-0.32;81.24;99207.45;84546;1331;22671;-74
2022/04/02 00:55:41;;;;;;;8.00;6.30;;;;;;;-0.32;81.25;99207.27;84642;1324;24399;-77
2022/04/02 00:57:53;;;;;;;7.40;6.40;;;;;;;-0.34;81.32;99208.52;84664;1328;24268;-77
2022/04/02 01:00:07;;;;;;;7.90;7.00;;;;;;;-0.38;81.13;99207.20;84635;1329;22690;-77
2022/04/02 01:02:18;;;;;;;9.60;6.10;;;;;;;-0.42;81.45;99206.23;84603;1333;25322;-75
2022/04/02 01:04:27;;;;;;;8.30;7.20;;;;;;;-0.45;81.16;99203.67;84574;1330;24093;-75
2022/04/02 01:06:40;;;;;;;8.30;6.00;;;;;;;-0.46;81.16;99205.40;84500;1332;22612;-75
2022/04/02 01:08:50;;;;;;;10.00;6.90;;;;;;;-0.46;81.20;99204.38;84606;1331;22591;-75
2022/04/02 01:11:01;;;;;;;5.90;5.10;;;;;;;-0.45;81.25;99208.30;84673;1330;24333;-76
2022/04/02 01:13:15;;;;;;;6.10;4.70;;;;;;;-0.45;81.16;99204.19;84668;1328;24277;-76
2022/04/02 01:15:28;;;;;;;7.80;5.30;;;;;;;-0.46;81.37;99204.20;84667;1332;23105;-76
2022/04/02 01:17:40;;;;;;;7.60;6.70;;;;;;;-0.46;81.45;99209.52;84674;1329;25642;-75
2022/04/02 01:19:49;;;;;;;7.80;6.30;;;;;;;-0.46;81.28;99207.80;84651;1330;22808;-75
2022/04/02 01:21:58;;;;;;;6.50;5.50;;;;;;;-0.45;81.22;99205.56;84684;1329;25026;-73
2022/04/02 01:24:09;;;;;;;6.10;5.40;;;;;;;-0.45;81.14;99208.13;84662;1329;23342;-74
2022/04/02 01:26:18;;;;;;;9.70;5.60;;;;;;;-0.45;81.34;99204.36;84550;1330;22624;-78
2022/04/02 01:28:33;;;;;;;8.20;6.30;;;;;;;-0.47;81.11;99203.38;84574;1329;25289;-78
2022/04/02 01:30:42;;;;;;;7.60;5.90;;;;;;;-0.49;81.02;99201.34;84562;1329;24144;-75
2022/04/02 01:32:54;;;;;;;7.30;5.50;;;;;;;-0.51;81.22;99200.84;84599;1328;22608;-75
2022/04/02 01:35:03;;;;;;;6.40;5.00;;;;;;;-0.53;81.16;99200.86;84612;1329;24327;-73
2022/04/02 01:37:17;;;;;;;6.50;5.70;;;;;;;-0.54;81.07;99199.51;84623;1329;22703;-79
2022/04/02 01:39:29;;;;;;;6.60;5.90;;;;;;;-0.52;81.41;99201.38;84590;1330;23906;-78
2022/04/02 01:41:38;;;;;;;8.90;6.00;;;;;;;-0.53;81.34;99202.58;84607;1329;22604;-78
2022/04/02 01:43:48;;;;;;;6.30;5.60;;;;;;;-0.53;81.18;99201.21;84563;1330;22593;-78
2022/04/02 01:46:00;;;;;;;8.50;5.80;;;;;;;-0.54;81.11;99205.51;84591;1331;22611;-78
2022/04/02 01:48:10;;;;;;;8.20;5.70;;;;;;;-0.55;81.33;99206.71;84564;1330;25470;-79
2022/04/02 01:50:23;;;;;;;5.90;5.00;;;;;;;-0.57;81.18;99209.31;84564;1330;22602;-78
2022/04/02 01:52:35;;;;;;;6.40;5.80;;;;;;;-0.59;81.24;99208.98;84561;1330;23929;-78
2022/04/02 01:54:44;;;;;;;8.20;5.80;;;;;;;-0.60;81.12;99211.22;83864;1332;1002625;-77
2022/04/02 01:56:56;;;;;;;8.00;5.80;;;;;;;-0.63;81.28;99208.86;84539;1329;22818;-78
2022/04/02 01:59:08;;;;;;;7.50;5.50;;;;;;;-0.66;81.16;99209.92;84616;1329;22625;-78
2022/04/02 02:01:20;;;;;;;5.90;5.30;;;;;;;-0.68;81.04;99204.98;84609;1329;22581;-79
2022/04/02 02:03:33;;;;;;;6.20;5.20;;;;;;;-0.69;81.21;99210.13;84556;1329;22592;-79
2022/04/02 02:05:44;;;;;;;6.80;5.10;;;;;;;-0.71;81.21;99207.40;84582;1327;22790;-75
2022/04/02 02:07:56;;;;;;;13.70;8.20;;;;;;;-0.70;81.07;99208.23;84570;1327;23030;-73
2022/04/02 02:10:06;;;;;;;6.00;5.10;;;;;;;-0.68;81.33;99208.08;84600;1332;22593;-75
2022/04/02 02:12:15;;;;;;;6.00;4.90;;;;;;;-0.66;81.41;99210.27;84618;1328;22607;-75
2022/04/02 02:14:24;;;;;;;7.30;5.20;;;;;;;-0.67;81.23;99208.05;84589;1330;22618;-75
2022/04/02 02:16:33;;;;;;;6.80;5.10;;;;;;;-0.67;81.28;99211.31;84611;1333;22616;-76
2022/04/02 02:18:45;;;;;;;6.70;5.90;;;;;;;-0.68;81.27;99207.55;84583;1331;22600;-75
2022/04/02 02:20:54;;;;;;;7.80;5.60;;;;;;;-0.68;81.15;99208.77;84551;1329;22693;-79
2022/04/02 02:23:02;;;;;;;8.00;5.90;;;;;;;-0.70;81.18;99209.96;84592;1329;22616;-79
2022/04/02 02:25:14;;;;;;;9.60;6.40;;;;;;;-0.71;81.25;99210.31;84596;1329;22629;-78
2022/04/02 02:27:26;;;;;;;5.80;5.20;;;;;;;-0.71;81.10;99209.46;84583;1323;22869;-75
2022/04/02 02:29:35;;;;;;;5.90;5.30;;;;;;;-0.73;81.12;99211.02;84594;1327;22607;-75
2022/04/02 02:31:44;;;;;;;7.00;5.60;;;;;;;-0.73;81.19;99211.04;84622;1330;22596;-74
2022/04/02 02:36:25;;;;;;;6.50;5.70;;;;;;;-0.73;81.21;99209.66;84631;1323;22601;-75
2022/04/02 02:38:33;;;;;;;4.90;4.30;;;;;;;-0.72;81.26;99212.55;84639;1328;22666;-75
2022/04/02 02:40:45;;;;;;;5.60;4.90;;;;;;;-0.71;81.20;99212.04;84637;1328;22608;-79
2022/04/02 02:42:54;;;;;;;7.90;6.20;;;;;;;-0.72;81.38;99212.91;84618;1328;24236;-79
2022/04/02 02:45:03;;;;;;;8.30;5.70;;;;;;;-0.73;81.29;99212.91;84628;1329;25288;-79
2022/04/02 02:47:12;;;;;;;6.20;5.40;;;;;;;-0.76;81.29;99213.28;84608;1329;22720;-79
2022/04/02 02:49:21;;;;;;;6.80;5.90;;;;;;;-0.77;80.99;99213.13;84619;1328;23953;-80
2022/04/02 02:51:29;;;;;;;6.40;5.50;;;;;;;-0.78;81.16;99217.42;84666;1329;25620;-81
2022/04/02 02:53:44;;;;;;;6.80;5.40;;;;;;;-0.78;81.23;99214.52;84621;1329;22606;-81
2022/04/02 02:55:55;;;;;;;5.90;4.70;;;;;;;-0.80;81.27;99214.69;84665;1324;22749;-76
2022/04/02 02:58:04;;;;;;;5.30;4.40;;;;;;;-0.80;81.25;99217.77;84617;1324;22762;-75
2022/04/02 03:00:15;;;;;;;5.90;4.70;;;;;;;-0.79;81.27;99217.93;84634;1328;22624;-74
2022/04/02 03:02:25;;;;;;;7.00;5.30;;;;;;;-0.78;81.10;99216.74;84623;1329;24259;-74
2022/04/02 03:04:34;;;;;;;6.30;5.70;;;;;;;-0.77;81.25;99220.16;84619;1332;25435;-74
2022/04/02 03:06:43;;;;;;;6.10;5.50;;;;;;;-0.77;81.19;99218.11;83900;1329;1003856;-74
2022/04/02 03:08:51;;;;;;;5.30;4.80;;;;;;;-0.77;81.07;99214.85;84630;1324;22584;-74
2022/04/02 03:11:03;;;;;;;6.60;5.30;;;;;;;-0.77;81.06;99217.08;84683;1325;24418;-74
2022/04/02 03:13:12;;;;;;;6.10;5.40;;;;;;;-0.76;81.22;99216.73;84686;1330;22614;-74
2022/04/02 03:15:24;;;;;;;9.10;4.90;;;;;;;-0.78;81.06;99214.86;84605;1329;25572;-76
2022/04/02 03:17:36;;;;;;;6.90;5.50;;;;;;;-0.80;81.17;99217.09;84610;1327;22604;-82
2022/04/02 03:19:44;;;;;;;8.30;5.80;;;;;;;-0.81;81.07;99220.52;84589;1330;23098;-80
2022/04/02 03:21:57;;;;;;;4.80;4.30;;;;;;;-0.84;81.22;99216.29;84619;1333;22594;-82
2022/04/02 03:24:06;;;;;;;4.60;3.90;;;;;;;-0.86;81.03;99221.61;84608;1331;22605;-81
2022/04/02 03:26:16;;;;;;;4.70;4.00;;;;;;;-0.86;81.01;99220.77;84589;1330;22604;-81
2022/04/02 03:28:25;;;;;;;4.30;3.90;;;;;;;-0.85;81.02;99224.16;84637;1330;24301;-79
2022/04/02 03:30:38;;;;;;;4.20;3.80;;;;;;;-0.83;81.13;99221.77;84592;1330;25303;-80
2022/04/02 03:32:46;;;;;;;4.30;3.90;;;;;;;-0.82;81.21;99221.73;84590;1331;22577;-79
2022/04/02 03:34:55;;;;;;;7.20;4.60;;;;;;;-0.82;81.30;99220.04;84644;1329;22616;-79
2022/04/02 03:37:04;;;;;;;5.70;5.10;;;;;;;-0.82;81.18;99222.95;84647;1328;25538;-80
2022/04/02 03:39:14;;;;;;;4.00;3.70;;;;;;;-0.81;81.14;99218.83;84647;1328;22610;-80
2022/04/02 03:41:25;;;;;;;4.30;3.90;;;;;;;-0.84;81.09;99221.24;84624;1326;22842;-79
2022/04/02 03:43:34;;;;;;;5.00;4.50;;;;;;;-0.87;81.16;99219.23;84650;1328;22602;-80
2022/04/02 03:45:43;;;;;;;4.50;4.10;;;;;;;-0.89;81.22;99221.98;84575;1330;22616;-81
2022/04/02 03:47:52;;;;;;;5.40;4.00;;;;;;;-0.90;80.94;99220.96;84640;1329;22605;-81
2022/04/02 03:50:04;;;;;;;5.00;4.20;;;;;;;-0.90;81.20;99223.02;84685;1328;22583;-81
2022/04/02 03:52:13;;;;;;;5.40;4.20;;;;;;;-0.90;81.13;99223.53;84699;1328;22591;-81
2022/04/02 03:54:22;;;;;;;3.70;3.10;;;;;;;-0.88;81.40;99225.58;84688;1329;25609;-81
2022/04/02 03:56:34;;;;;;;5.30;4.30;;;;;;;-0.88;81.18;99225.06;84636;1324;22617;-80
2022/04/02 03:58:43;;;;;;;4.50;3.70;;;;;;;-0.87;81.22;99226.08;84699;1329;22609;-80
2022/04/02 04:00:53;;;;;;;4.00;3.70;;;;;;;-0.88;81.19;99224.03;84609;1330;24304;-81
2022/04/02 04:03:00;;;;;;;;;;;;;;;-0.87;81.32;99229.16;84607;1331;25459;-80
2022/04/02 04:05:10;;;;;;;6.10;3.50;;;;;;;-0.93;81.51;99230.93;84584;1332;24294;-82
2022/04/02 04:07:19;;;;;;;4.30;3.90;;;;;;;-0.97;81.12;99231.83;84628;1330;25315;-74
2022/04/02 04:09:31;;;;;;;7.80;4.20;;;;;;;-0.99;81.34;99231.84;84615;1323;22967;-75
2022/04/02 04:11:45;;;;;;;5.80;4.10;;;;;;;-1.01;81.22;99231.52;84634;1328;25951;-74
2022/04/02 04:13:55;;;;;;;4.90;3.90;;;;;;;-1.03;81.17;99228.63;84592;1330;25260;-74
2022/04/02 04:16:07;;;;;;;3.30;3.00;;;;;;;-1.05;81.21;99232.92;84630;1328;22599;-73
2022/04/02 04:18:19;;;;;;;6.00;3.50;;;;;;;-1.05;81.29;99234.11;84604;1332;22671;-74
2022/04/02 04:20:28;;;;;;;3.30;3.00;;;;;;;-1.05;81.39;99238.73;84566;1331;24009;-76
2022/04/02 04:22:36;;;;;;;3.30;2.90;;;;;;;-1.05;81.49;99235.65;84595;1329;25455;-75
2022/04/02 04:24:45;;;;;;;4.50;3.40;;;;;;;-1.04;81.54;99231.86;84562;1330;23729;-74
2022/04/02 04:26:58;;;;;;;5.40;4.30;;;;;;;-1.05;81.31;99235.66;84629;1327;24218;-74
2022/04/02 04:29:06;;;;;;;4.20;3.40;;;;;;;-1.08;81.45;99234.83;84594;1332;25406;-75
2022/04/02 04:31:17;;;;;;;3.80;3.10;;;;;;;-1.11;81.21;99237.43;84592;1331;22595;-75
2022/04/02 04:33:29;;;;;;;5.20;2.80;;;;;;;-1.13;81.23;99239.49;84576;1330;22612;-75
2022/04/02 04:35:41;;;;;;;5.00;3.00;;;;;;;-1.14;81.13;99240.88;84610;1330;24329;-79
2022/04/02 04:37:51;;;;;;;5.10;3.00;;;;;;;-1.14;81.16;99239.51;84588;1332;22593;-81
2022/04/02 04:40:00;;;;;;;3.30;2.70;;;;;;;-1.15;81.16;99246.36;84605;1332;24226;-80
2022/04/02 04:42:12;;;;;;;4.30;2.70;;;;;;;-1.16;81.24;99242.78;84583;1329;25543;-79
2022/04/02 04:44:21;;;;;;;3.60;2.70;;;;;;;-1.17;81.32;99246.90;84613;1329;22606;-80
2022/04/02 04:46:30;;;;;;;5.30;3.00;;;;;;;-1.18;81.10;99246.56;84588;1329;22699;-79
2022/04/02 04:48:41;;;;;;;4.20;3.00;;;;;;;-1.17;81.34;99248.45;84589;1332;25288;-79
2022/04/02 04:50:53;;;;;;;4.90;2.80;;;;;;;-1.16;81.35;99250.65;83915;1328;1003448;-79
2022/04/02 04:53:02;;;;;;;4.10;3.00;;;;;;;-1.17;81.15;99251.52;84691;1328;24300;-74
2022/04/02 04:55:14;;;;;;;5.10;3.10;;;;;;;-1.16;81.33;99253.39;84608;1330;22853;-75
2022/04/02 04:57:23;;;;;;;3.80;2.70;;;;;;;-1.16;81.13;99257.67;84606;1327;22659;-75
2022/04/02 04:59:34;;;;;;;4.50;3.30;;;;;;;-1.19;81.12;99259.58;84586;1326;22673;-75
2022/04/02 05:01:47;;;;;;;3.50;3.20;;;;;;;-1.20;81.15;99261.12;84595;1326;22604;-75
2022/04/02 05:03:59;;;;;;;4.10;2.90;;;;;;;-1.20;81.02;99261.98;84590;1322;22621;-76
2022/04/02 05:06:10;;;;;;;3.30;3.00;;;;;;;-1.20;81.15;99263.85;84560;1329;24299;-75
2022/04/02 05:08:19;;;;;;;4.60;3.00;;;;;;;-1.20;81.34;99263.52;84628;1331;26507;-76
2022/04/02 05:10:31;;;;;;;3.80;2.70;;;;;;;-1.18;80.96;99267.79;84569;1326;22850;-77
2022/04/02 05:12:44;;;;;;;3.70;3.40;;;;;;;-1.17;81.21;99267.77;84584;1331;22648;-80
2022/04/02 05:14:55;;;;;;;3.30;2.80;;;;;;;-1.19;81.03;99265.90;84603;1331;22597;-80
2022/04/02 05:17:05;;;;;;;3.00;2.40;;;;;;;-1.20;81.00;99270.70;84591;1330;22687;-73
2022/04/02 05:19:14;;;;;;;4.50;2.60;;;;;;;-1.19;81.24;99274.13;84601;1329;22541;-74
2022/04/02 05:21:23;;;;;;;3.10;2.80;;;;;;;-1.19;81.17;99270.34;84592;1330;22881;-73
2022/04/02 05:23:32;;;;;;;5.30;3.70;;;;;;;-1.19;81.12;99272.92;84595;1328;23980;-76
2022/04/02 05:25:44;;;;;;;3.90;3.10;;;;;;;-1.21;81.16;99270.72;84616;1326;23061;-75
2022/04/02 05:27:54;;;;;;;3.70;3.30;;;;;;;-1.21;81.05;99274.32;84586;1326;22594;-75
2022/04/02 05:30:01;;;;;;;;;;;;;;;-1.19;81.02;99274.80;84606;1333;23954;-75
2022/04/02 05:32:12;;;;;;;3.20;2.90;;;;;;;-1.20;81.09;99275.15;84599;1330;22613;-80
2022/04/02 05:34:24;;;;;;;3.60;2.70;;;;;;;-1.18;81.14;99275.14;84630;1328;22597;-80
2022/04/02 05:36:34;;;;;;;2.80;2.30;;;;;;;-1.16;81.02;99277.01;84578;1332;22590;-79
2022/04/02 05:38:43;;;;;;;2.90;2.60;;;;;;;-1.14;80.81;99277.84;84605;1332;22568;-78
2022/04/02 05:40:51;;;;;;;3.70;3.00;;;;;;;-1.12;80.74;99274.40;84564;1331;25267;-80
2022/04/02 05:43:00;;;;;;;3.10;2.80;;;;;;;-1.10;80.82;99276.25;84612;1329;22583;-79
2022/04/02 05:45:13;;;;;;;3.70;2.60;;;;;;;-1.09;80.85;99277.11;84600;1330;24233;-79
2022/04/02 05:47:22;;;;;;;4.30;3.90;;;;;;;-1.09;80.66;99284.46;84565;1332;22700;-80
2022/04/02 05:49:34;;;;;;;2.90;2.60;;;;;;;-1.06;80.75;99284.80;84608;1332;22635;-80
2022/04/02 05:51:43;;;;;;;5.20;3.00;;;;;;;-1.07;80.58;99286.52;84645;1329;24229;-80
2022/04/02 05:53:52;;;;;;;4.40;3.50;;;;;;;-1.08;80.68;99289.95;84562;1326;22641;-80
2022/04/02 05:56:03;;;;;;;4.80;3.20;;;;;;;-1.07;80.43;99290.30;84616;1329;22593;-75
2022/04/02 05:58:14;;;;;;;3.70;2.90;;;;;;;-1.06;80.50;99290.96;84636;1329;22593;-76
2022/04/02 06:00:24;;;;;;;4.20;2.70;;;;;;;-1.02;80.51;99292.98;84637;1324;22745;-76
2022/04/02 06:02:33;;;;;;;4.00;3.20;;;;;;;-0.97;80.36;99292.94;84640;1328;22555;-75
2022/04/02 06:04:42;;;;;;;3.30;2.80;;;;;;;-0.93;80.30;99294.63;84629;1328;22602;-75
2022/04/02 06:06:51;;;;;;;4.40;3.30;;;;;;;-0.91;80.25;99297.84;84600;1329;22602;-78
2022/04/02 06:09:00;;;;;;;5.50;3.50;;;;;;;-0.88;80.13;99299.54;84624;1328;24224;-79
2022/04/02 06:11:15;;;;;;;4.70;3.60;;;;;;;-0.85;80.41;99301.90;84626;1329;22633;-80
2022/04/02 06:13:28;;;;;;;4.70;3.60;;;;;;;-0.82;80.06;99301.52;84633;1328;22595;-79
2022/04/02 06:15:37;;;;;;;3.80;3.40;;;;;;;-0.79;79.96;99305.27;84640;1328;22806;-78
2022/04/02 06:17:46;;;;;;;4.10;3.40;;;;;;;-0.78;79.84;99305.10;84644;1328;25411;-79
2022/04/02 06:19:55;;;;;;;5.10;3.50;;;;;;;-0.76;79.83;99310.21;84645;1326;22593;-78
2022/04/02 06:22:06;;;;;;;3.70;3.20;;;;;;;-0.72;79.70;99310.00;84618;1328;22629;-77
2022/04/02 06:24:15;;;;;;;5.10;3.80;;;;;;;-0.68;79.70;99308.77;84645;1330;25307;-77
2022/04/02 06:26:24;;;;;;;4.50;3.00;;;;;;;-0.63;79.81;99314.20;84567;1328;22619;-77
2022/04/02 06:28:33;;;;;;;3.10;2.80;;;;;;;-0.60;79.60;99311.06;84581;1330;24422;-78
2022/04/02 06:30:42;;;;;;;3.00;2.60;;;;;;;-0.55;79.36;99313.61;84643;1329;22685;-80
2022/04/02 06:33:00;;;;;;;4.50;3.40;;;;;;;-0.52;79.30;99314.43;84620;1329;23055;-81
2022/04/02 06:35:10;;;;;;;4.30;3.30;;;;;;;-0.50;79.12;99313.72;84627;1328;22589;-81
2022/04/02 06:37:20;;;;;;;4.00;3.00;;;;;;;-0.44;79.14;99315.71;84598;1326;22576;-76
2022/04/02 06:39:30;;;;;;;5.40;3.50;;;;;;;-0.43;79.06;99320.00;84626;1328;25443;-76
2022/04/02 06:41:43;;;;;;;3.90;3.20;;;;;;;-0.39;78.90;99317.39;84661;1329;22707;-81
2022/04/02 06:43:56;;;;;;;5.00;3.90;;;;;;;-0.38;78.76;99322.85;84630;1329;22609;-82
2022/04/02 06:46:08;;;;;;;5.80;3.90;;;;;;;-0.36;78.77;99325.90;83977;1325;1003292;-77
2022/04/02 06:48:21;;;;;;;6.20;3.60;;;;;;;-0.30;78.80;99325.50;84632;1328;22840;-74
2022/04/02 06:50:30;;;;;;;5.60;3.30;;;;;;;-0.26;78.61;99334.19;84651;1324;22620;-74
2022/04/02 06:52:40;;;;;;;5.60;3.80;;;;;;;-0.28;78.20;99330.45;84637;1328;25428;-75
2022/04/02 06:54:51;;;;;;;10.70;3.00;;;;;;;-0.27;78.37;99331.64;84617;1328;22612;-77
2022/04/02 06:57:01;;;;;;;3.50;3.20;;;;;;;-0.24;78.09;99329.05;84645;1329;22604;-77
2022/04/02 06:59:10;;;;;;;;;;;;;;;-0.21;78.19;99328.83;84640;1328;22566;-75
2022/04/02 07:01:25;;;;;;;3.70;2.80;;;;;;;-0.19;78.16;99333.27;84600;1331;22677;-76
2022/04/02 07:03:42;;;;;;;4.70;4.10;;;;;;;-0.15;77.90;99330.48;84555;1334;22600;-76
2022/04/02 07:05:52;;;;;;;4.50;3.50;;;;;;;-0.15;77.80;99333.89;84609;1329;22582;-79
2022/04/02 07:08:04;;;;;;;5.90;4.00;;;;;;;-0.10;78.07;99331.80;84636;1328;22685;-78
2022/04/02 07:10:16;;;;;;;4.70;3.90;;;;;;;-0.08;77.77;99333.33;84603;1328;24087;-79
2022/04/02 07:12:26;;;;;;;5.50;4.20;;;;;;;-0.09;77.48;99331.27;84662;1329;22588;-77
2022/04/02 07:14:39;;;;;;;86.70;38.60;;;;;;;-0.06;77.49;99331.57;84628;1325;22610;-77
2022/04/02 07:16:49;;;;;;;17.30;11.40;;;;;;;0.00;77.72;99333.73;84650;1329;22626;-78
2022/04/02 07:19:02;;;;;;;4.40;3.50;;;;;;;0.06;77.40;99330.75;84632;1324;24335;-80
2022/04/02 07:21:14;;;;;;;4.70;3.60;;;;;;;0.09;77.01;99337.05;84617;1325;22592;-75
2022/04/02 07:23:26;;;;;;;4.30;3.60;;;;;;;0.12;77.10;99337.20;84631;1328;22616;-75
2022/04/02 07:25:35;;;;;;;4.60;3.80;;;;;;;0.17;77.27;99336.80;84639;1328;25503;-78
2022/04/02 07:27:46;;;;;;;5.10;3.60;;;;;;;0.20;76.95;99337.44;84664;1328;22605;-74
2022/04/02 07:29:58;;;;;;;5.60;3.90;;;;;;;0.20;76.67;99335.89;84626;1329;22740;-74
2022/04/02 07:32:11;;;;;;;5.50;3.80;;;;;;;0.22;76.67;99336.38;84637;1328;25300;-75
2022/04/02 07:34:23;;;;;;;4.60;3.80;;;;;;;0.26;76.75;99333.25;84649;1329;26550;-77
2022/04/02 07:36:47;;;;;;;5.20;4.30;;;;;;;0.27;76.59;99334.42;84613;1330;23981;-78
2022/04/02 07:39:05;;;;;;;4.40;3.10;;;;;;;0.25;76.31;99334.45;84647;1329;22628;-77
2022/04/02 07:41:22;;;;;;;4.00;2.90;;;;;;;0.24;76.40;99338.73;83935;1332;1003042;-78
2022/04/02 07:43:41;;;;;;;5.00;3.60;;;;;;;0.30;76.72;99338.52;84590;1330;22778;-78
2022/04/02 07:45:57;;;;;;;5.10;4.60;;;;;;;0.39;76.69;99345.76;84650;1330;22737;-78
2022/04/02 07:48:13;;;;;;;3.40;3.10;;;;;;;0.47;76.28;99345.83;84624;1328;23872;-79
2022/04/02 07:50:23;;;;;;;5.40;4.00;;;;;;;0.56;76.25;99347.42;84577;1332;24279;-77
2022/04/02 07:52:36;;;;;;;4.80;3.50;;;;;;;0.61;75.79;99348.02;84647;1328;22597;-77
2022/04/02 07:54:51;;;;;;;4.90;3.50;;;;;;;0.64;75.72;99349.90;84651;1324;22670;-78
2022/04/02 07:57:04;;;;;;;4.30;3.00;;;;;;;0.65;75.58;99351.77;84616;1330;22729;-73
2022/04/02 07:59:16;;;;;;;4.30;3.80;;;;;;;0.70;75.80;99352.38;84656;1329;22630;-76
2022/04/02 08:01:29;;;;;;;5.40;4.00;;;;;;;0.77;75.62;99349.86;84639;1328;22897;-77
2022/04/02 08:03:42;;;;;;;4.80;3.50;;;;;;;0.81;75.45;99352.90;84640;1329;22879;-75
2022/04/02 08:05:55;;;;;;;4.60;3.60;;;;;;;0.82;75.21;99356.66;84637;1333;26506;-77
2022/04/02 08:08:12;;;;;;;5.30;4.70;;;;;;;0.84;75.08;99354.40;84624;1329;25950;-75
2022/04/02 08:10:24;;;;;;;5.20;4.00;;;;;;;0.85;74.87;99357.99;84505;1332;23942;-75
2022/04/02 08:12:36;;;;;;;5.50;4.20;;;;;;;0.86;74.88;99358.83;84633;1333;24262;-77
2022/04/02 08:14:47;;;;;;;4.10;3.60;;;;;;;0.90;74.78;99359.98;84615;1326;22598;-75
2022/04/02 08:17:02;;;;;;;4.70;3.40;;;;;;;0.90;74.55;99359.98;83880;1332;1002973;-76
2022/04/02 08:19:14;;;;;;;5.30;3.80;;;;;;;0.91;74.45;99365.63;84600;1332;24390;-77
2022/04/02 08:21:24;;;;;;;;;;;;;;;1.00;74.70;99368.41;84702;1330;25482;-78
2022/04/02 08:23:33;;;;;;;5.10;3.80;;;;;;;1.03;74.35;99367.51;84668;1329;23884;-76
2022/04/02 08:25:46;;;;;;;4.30;3.60;;;;;;;1.11;74.46;99374.07;84663;1324;23915;-75
2022/04/02 08:28:08;;;;;;;7.10;3.80;;;;;;;1.15;74.12;99375.21;84644;1327;25499;-78
2022/04/02 08:30:23;;;;;;;4.50;3.40;;;;;;;1.20;73.82;99373.09;84668;1330;22590;-76
2022/04/02 08:32:45;;;;;;;6.20;4.00;;;;;;;1.26;73.81;99372.81;84679;1328;22578;-76
2022/04/02 08:35:07;;;;;;;4.80;3.40;;;;;;;1.32;73.85;99372.19;84714;1329;22585;-76
2022/04/02 08:37:33;;;;;;;4.80;4.00;;;;;;;1.39;73.97;99369.85;84709;1329;24181;-75
2022/04/02 08:39:49;;;;;;;4.50;3.60;;;;;;;1.48;73.80;99370.21;84607;1329;22591;-74
2022/04/02 08:42:42;;;;;;;4.10;3.50;;;;;;;1.52;73.18;99373.90;84616;1332;22631;-74
2022/04/02 08:45:14;;;;;;;5.00;3.80;;;;;;;1.53;73.43;99379.58;84539;1331;24334;-75
2022/04/02 08:48:06;;;;;;;4.80;4.30;;;;;;;1.64;73.46;99378.37;84618;1332;22886;-73
2022/04/02 08:50:21;;;;;;;6.20;4.60;;;;;;;1.75;73.37;99374.89;84329;1331;495832;-77
2022/04/02 08:52:46;;;;;;;4.10;3.70;;;;;;;1.85;72.86;99377.30;84606;1329;23972;-76
2022/04/02 08:55:15;;;;;;;5.70;3.60;;;;;;;1.94;72.51;99377.64;84630;1328;24227;-75
2022/04/02 08:57:32;;;;;;;5.10;3.90;;;;;;;1.96;71.74;99382.74;84602;1329;22599;-76
2022/04/02 08:59:45;;;;;;;4.90;4.20;;;;;;;2.00;71.98;99383.36;84664;1329;22590;-76
2022/04/02 09:02:05;;;;;;;5.30;4.00;;;;;;;2.08;71.68;99382.69;84653;1329;22732;-75
2022/04/02 09:05:10;;;;;;;5.90;4.10;;;;;;;2.15;71.57;99385.99;84643;1328;22714;-75
2022/04/02 09:08:07;;;;;;;5.80;4.50;;;;;;;2.22;71.44;99386.73;84537;1323;22687;-78
2022/04/02 09:10:49;;;;;;;4.80;4.30;;;;;;;2.33;71.51;99390.29;84638;1328;25292;-72
2022/04/02 09:13:37;;;;;;;5.40;4.90;;;;;;;2.43;71.24;99390.94;84634;1329;22649;-77
2022/04/02 09:16:02;;;;;;;6.70;4.80;;;;;;;2.51;70.71;99393.37;84618;1332;24275;-77
2022/04/02 09:18:27;;;;;;;8.10;5.60;;;;;;;2.53;70.51;99392.30;84630;1329;22629;-76
2022/04/02 09:21:13;;;;;;;5.00;4.00;;;;;;;2.61;70.48;99390.40;84598;1333;25331;-77
2022/04/02 09:23:58;;;;;;;5.70;4.70;;;;;;;2.69;70.05;99396.42;84627;1329;22602;-76
2022/04/02 09:26:45;;;;;;;5.70;4.40;;;;;;;2.68;69.83;99396.79;84626;1332;25286;-75
2022/04/02 09:29:18;;;;;;;7.30;5.40;;;;;;;2.72;70.12;99399.46;84622;1331;22667;-75
2022/04/02 09:32:19;;;;;;;5.80;4.90;;;;;;;2.69;69.73;99399.86;84599;1328;22623;-78
2022/04/02 09:35:36;;;;;;;9.20;4.60;;;;;;;2.69;69.93;99398.84;84582;1332;22588;-77
2022/04/02 09:38:22;;;;;;;8.80;6.20;;;;;;;2.77;69.72;99397.27;84591;1332;22956;-76
2022/04/02 09:40:49;;;;;;;6.10;4.90;;;;;;;2.87;69.52;99397.74;84648;1332;22594;-76
2022/04/02 09:43:01;;;;;;;7.20;6.00;;;;;;;2.97;68.93;99398.38;84600;1330;24135;-76
2022/04/02 09:45:12;;;;;;;8.70;5.20;;;;;;;3.05;69.47;99394.40;84631;1329;22713;-76
2022/04/02 09:47:29;;;;;;;7.20;4.80;;;;;;;3.20;69.23;99393.20;84639;1332;22759;-78
2022/04/02 09:50:11;;;;;;;5.60;4.60;;;;;;;3.31;68.93;99392.56;84635;1332;22713;-76
2022/04/02 09:52:27;;;;;;;7.20;4.50;;;;;;;3.46;69.02;99392.55;84687;1321;24217;-75
2022/04/02 09:54:47;;;;;;;4.70;3.90;;;;;;;3.61;68.42;99389.59;84674;1332;22644;-76
2022/04/02 09:57:10;;;;;;;4.90;4.40;;;;;;;3.77;68.19;99393.85;84648;1332;22598;-75
2022/04/02 09:59:23;;;;;;;5.90;4.10;;;;;;;3.90;67.69;99400.94;84665;1332;24240;-75
2022/04/02 10:01:38;;;;;;;5.30;4.30;;;;;;;3.94;67.03;99396.52;84663;1326;22867;-75
2022/04/02 10:04:01;;;;;;;6.40;4.90;;;;;;;4.02;66.81;99401.11;84630;1331;22968;-76
2022/04/02 10:06:25;;;;;;;4.90;4.40;;;;;;;4.02;66.10;99398.02;84579;1329;22609;-76
2022/04/02 10:08:46;;;;;;;6.10;4.70;;;;;;;4.05;66.42;99395.87;84675;1332;24411;-74
2022/04/02 10:11:03;;;;;;;7.60;5.50;;;;;;;4.14;66.65;99397.52;84591;1329;22583;-74
2022/04/02 10:13:19;;;;;;;7.10;5.40;;;;;;;4.28;66.54;99397.66;84612;1325;22590;-75
2022/04/02 10:15:31;;;;;;;6.40;5.00;;;;;;;4.42;66.49;99395.36;84610;1332;22600;-74
2022/04/02 10:17:51;;;;;;;6.90;6.10;;;;;;;4.53;65.92;99396.78;84663;1329;22602;-76
2022/04/02 10:20:01;;;;;;;6.60;4.80;;;;;;;4.61;65.52;99395.66;84643;1328;22621;-76
2022/04/02 10:22:12;;;;;;;6.00;5.00;;;;;;;4.65;65.27;99398.30;84608;1332;22688;-75
2022/04/02 10:24:32;;;;;;;8.90;5.00;;;;;;;4.72;64.98;99394.83;84658;1332;22919;-77
2022/04/02 10:26:43;;;;;;;6.90;5.30;;;;;;;4.79;64.66;99397.73;84668;1328;22580;-76
2022/04/02 10:28:57;;;;;;;8.60;5.80;;;;;;;4.82;64.74;99397.45;84626;1324;22964;-77
2022/04/02 10:31:07;;;;;;;7.20;5.00;;;;;;;4.87;64.82;99397.65;83910;1330;1003405;-78
2022/04/02 10:33:29;;;;;;;9.90;5.10;;;;;;;4.99;64.05;99393.16;84632;1329;25166;-78
2022/04/02 10:35:37;;;;;;;7.80;5.40;;;;;;;5.00;63.62;99397.42;84652;1328;22604;-77